createdAt,value
2023-04-13T00:00:27.845Z,0.37
2023-04-13T00:02:58.074Z,0.40
2023-04-13T00:05:28.325Z,0.50
2023-04-13T00:07:59.856Z,0.50
2023-04-13T00:10:31.285Z,0.30
2023-04-13T00:13:01.490Z,0.40
2023-04-13T00:15:31.065Z,0.60
2023-04-13T00:18:00.612Z,0.53
2023-04-13T00:20:30.713Z,0.30
2023-04-13T00:23:00.729Z,0.57
2023-04-13T00:25:30.722Z,0.60
2023-04-13T00:28:02.805Z,0.50
2023-04-13T00:30:32.980Z,0.47
2023-04-13T00:33:04.190Z,0.50
2023-04-13T00:35:33.918Z,0.43
2023-04-13T00:38:04.797Z,0.47
2023-04-13T00:40:36.051Z,0.60
2023-04-13T00:43:05.752Z,0.60
2023-04-13T00:45:39.582Z,0.60
2023-04-13T00:48:14.477Z,0.60
2023-04-13T00:50:45.116Z,0.83
2023-04-13T00:53:15.981Z,0.67
2023-04-13T00:55:45.659Z,0.50
2023-04-13T00:58:15.692Z,0.60
2023-04-13T01:00:45.178Z,0.70
2023-04-13T01:03:15.021Z,0.60
2023-04-13T01:06:34.126Z,0.47
2023-04-13T01:09:13.572Z,0.50
2023-04-13T01:11:59.541Z,0.40
2023-04-13T01:14:37.460Z,0.60
2023-04-13T01:17:11.536Z,0.40
2023-04-13T01:19:57.704Z,0.60
2023-04-13T01:22:33.876Z,0.70
2023-04-13T01:25:28.443Z,0.47
2023-04-13T01:28:05.348Z,0.63
2023-04-13T01:30:38.759Z,0.50
2023-04-13T01:33:10.009Z,0.70
2023-04-13T01:35:40.844Z,0.90
2023-04-13T01:38:12.260Z,1.10
2023-04-13T01:40:42.189Z,1.17
2023-04-13T01:43:11.672Z,1.33
2023-04-13T01:46:00.908Z,1.20
2023-04-13T01:48:40.858Z,0.70
2023-04-13T01:51:26.310Z,0.70
2023-04-13T01:54:10.519Z,0.60
2023-04-13T01:56:42.065Z,0.63
2023-04-13T01:59:13.173Z,0.73
2023-04-13T02:01:43.498Z,0.90
2023-04-13T02:04:13.874Z,0.50
2023-04-13T02:06:43.931Z,0.50
2023-04-13T02:09:13.466Z,0.50
2023-04-13T02:11:44.221Z,0.63
2023-04-13T02:14:13.702Z,1.00
2023-04-13T02:16:43.227Z,0.60
2023-04-13T02:19:13.639Z,0.60
2023-04-13T02:21:43.112Z,0.83
2023-04-13T02:24:12.672Z,1.07
2023-04-13T02:26:42.227Z,0.53
2023-04-13T02:29:11.716Z,0.60
2023-04-13T02:31:42.848Z,0.63
2023-04-13T02:34:12.445Z,0.50
2023-04-13T02:36:41.911Z,0.60
2023-04-13T02:39:11.406Z,0.50
2023-04-13T02:41:42.595Z,0.40
2023-04-13T02:44:12.155Z,0.53
2023-04-13T02:46:41.633Z,0.63
2023-04-13T02:49:11.726Z,0.50
2023-04-13T02:51:41.220Z,0.60
2023-04-13T02:54:12.137Z,0.70
2023-04-13T02:56:41.630Z,0.53
2023-04-13T02:59:11.343Z,0.77
2023-04-13T03:01:42.107Z,0.67
2023-04-13T03:04:11.823Z,1.03
2023-04-13T03:06:43.031Z,0.90
2023-04-13T03:09:12.561Z,0.60
2023-04-13T03:11:42.469Z,0.70
2023-04-13T03:14:16.734Z,0.37
2023-04-13T03:16:46.313Z,0.60
2023-04-13T03:19:16.822Z,0.60
2023-04-13T03:21:46.348Z,0.50
2023-04-13T03:24:15.963Z,0.53
2023-04-13T03:26:45.458Z,0.50
2023-04-13T03:29:15.199Z,0.97
2023-04-13T03:31:44.738Z,0.77
2023-04-13T03:34:14.253Z,0.70
2023-04-13T03:36:43.764Z,0.57
2023-04-13T03:39:13.233Z,0.90
2023-04-13T03:41:42.755Z,0.80
2023-04-13T03:44:12.293Z,0.70
2023-04-13T03:46:41.991Z,1.00
2023-04-13T03:49:12.858Z,0.73
2023-04-13T03:51:42.352Z,0.70
2023-04-13T03:54:11.960Z,0.80
2023-04-13T03:56:41.734Z,0.80
2023-04-13T03:59:11.467Z,0.53
2023-04-13T04:01:41.431Z,0.90
2023-04-13T04:04:10.977Z,0.93
2023-04-13T04:06:40.572Z,0.70
2023-04-13T04:09:10.251Z,1.33
2023-04-13T04:11:39.781Z,0.90
2023-04-13T04:14:09.265Z,0.80
2023-04-13T04:16:38.802Z,0.60
2023-04-13T04:19:08.573Z,0.57
2023-04-13T04:21:38.099Z,0.57
2023-04-13T04:24:08.829Z,0.67
2023-04-13T04:26:38.336Z,0.67
2023-04-13T04:29:09.443Z,1.30
2023-04-13T04:31:40.661Z,0.93
2023-04-13T04:34:10.648Z,0.83
2023-04-13T04:36:41.963Z,0.60
2023-04-13T04:39:13.175Z,0.80
2023-04-13T04:41:44.159Z,0.53
2023-04-13T04:44:15.265Z,0.50
2023-04-13T04:46:45.143Z,1.17
2023-04-13T04:49:14.608Z,0.67
2023-04-13T04:51:44.093Z,0.60
2023-04-13T04:54:13.951Z,0.73
2023-04-13T04:56:43.622Z,0.80
2023-04-13T04:59:13.415Z,0.70
2023-04-13T05:01:43.677Z,0.50
2023-04-13T05:04:13.503Z,1.00
2023-04-13T05:06:44.776Z,0.90
2023-04-13T05:09:15.135Z,0.50
2023-04-13T05:11:44.633Z,0.53
2023-04-13T05:14:14.352Z,0.60
2023-04-13T05:16:43.847Z,0.77
2023-04-13T05:19:13.658Z,0.60
2023-04-13T05:21:43.169Z,0.60
2023-04-13T05:24:12.724Z,1.53
2023-04-13T05:27:18.615Z,0.90
2023-04-13T05:29:48.202Z,0.80
2023-04-13T05:32:17.680Z,0.70
2023-04-13T05:34:47.512Z,0.73
2023-04-13T05:37:17.009Z,0.80
2023-04-13T05:39:46.567Z,1.10
2023-04-13T05:42:17.504Z,1.40
2023-04-13T05:44:47.041Z,1.27
2023-04-13T05:47:16.978Z,1.20
2023-04-13T05:49:46.615Z,0.80
2023-04-13T05:52:16.377Z,1.20
2023-04-13T05:54:46.221Z,1.03
2023-04-13T05:57:15.865Z,1.00
2023-04-13T05:59:45.338Z,0.90
2023-04-13T06:02:14.936Z,0.73
2023-04-13T06:04:45.574Z,0.97
2023-04-13T06:07:17.796Z,1.40
2023-04-13T06:09:47.337Z,1.37
2023-04-13T06:12:18.402Z,0.80
2023-04-13T06:14:48.532Z,0.80
2023-04-13T06:17:18.083Z,1.00
2023-04-13T06:19:47.576Z,0.70
2023-04-13T06:22:17.072Z,1.42
2023-04-13T06:24:46.542Z,1.10
2023-04-13T06:27:16.026Z,0.80
2023-04-13T06:29:46.045Z,1.10
2023-04-13T06:32:15.698Z,1.40
2023-04-13T06:34:45.944Z,1.03
2023-04-13T06:37:15.896Z,0.70
2023-04-13T06:39:45.377Z,0.70
2023-04-13T06:42:15.377Z,0.63
2023-04-13T06:44:44.923Z,1.63
2023-04-13T06:47:14.408Z,1.37
2023-04-13T06:49:43.926Z,0.70
2023-04-13T06:52:13.379Z,0.90
2023-04-13T06:54:43.023Z,0.90
2023-04-13T06:57:13.374Z,1.00
2023-04-13T06:59:42.862Z,0.60
2023-04-13T07:02:12.398Z,0.60
2023-04-13T07:04:41.968Z,0.50
2023-04-13T07:07:12.025Z,0.50
2023-04-13T07:09:41.783Z,0.50
2023-04-13T07:12:11.725Z,0.40
2023-04-13T07:14:42.925Z,0.90
2023-04-13T07:17:13.334Z,0.47
2023-04-13T07:19:50.095Z,0.47
2023-04-13T07:22:19.582Z,0.20
2023-04-13T07:24:49.093Z,0.30
2023-04-13T07:27:18.558Z,1.03
2023-04-13T07:29:49.033Z,0.50
2023-04-13T07:32:20.747Z,0.57
2023-04-13T07:34:49.761Z,0.50
2023-04-13T07:37:19.239Z,1.17
2023-04-13T07:39:48.719Z,0.23
2023-04-13T07:42:18.194Z,0.60
2023-04-13T07:44:47.691Z,0.43
2023-04-13T07:47:17.165Z,0.73
2023-04-13T07:49:46.662Z,0.50
2023-04-13T07:52:16.136Z,0.40
2023-04-13T07:54:45.650Z,0.80
2023-04-13T07:57:16.837Z,0.50
2023-04-13T07:59:46.334Z,0.43
2023-04-13T08:02:17.552Z,1.70
2023-04-13T08:04:47.295Z,0.40
2023-04-13T08:07:17.363Z,1.90
2023-04-13T08:09:48.614Z,1.43
2023-04-13T08:12:18.157Z,0.40
2023-04-13T08:14:47.657Z,0.47
2023-04-13T08:17:17.218Z,0.40
2023-04-13T08:19:46.739Z,1.30
2023-04-13T08:22:16.221Z,0.50
2023-04-13T08:24:45.928Z,0.93
2023-04-13T08:27:15.603Z,0.50
2023-04-13T08:29:45.682Z,0.67
2023-04-13T08:32:15.393Z,0.97
2023-04-13T08:34:45.304Z,0.70
2023-04-13T08:37:16.164Z,0.40
2023-04-13T08:39:46.345Z,1.40
2023-04-13T08:42:16.928Z,0.47
2023-04-13T08:44:47.722Z,0.27
2023-04-13T08:47:17.203Z,0.50
2023-04-13T08:49:49.776Z,0.40
2023-04-13T08:52:19.445Z,0.20
2023-04-13T08:54:49.241Z,0.43
2023-04-13T08:57:19.934Z,1.07
2023-04-13T08:59:52.617Z,0.47
2023-04-13T09:02:29.455Z,1.93
2023-04-13T09:05:05.087Z,0.77
2023-04-13T09:07:36.825Z,0.40
2023-04-13T09:10:07.948Z,0.40
2023-04-13T09:12:37.616Z,0.70
2023-04-13T09:15:14.943Z,0.50
2023-04-13T09:17:45.235Z,0.97
2023-04-13T09:20:20.973Z,0.43
2023-04-13T09:22:52.120Z,0.30
2023-04-13T09:25:23.856Z,0.40
2023-04-13T09:27:54.138Z,0.80
2023-04-13T09:30:26.147Z,0.40
2023-04-13T09:33:10.557Z,0.40
2023-04-13T09:35:40.786Z,1.70
2023-04-13T09:38:11.880Z,0.73
2023-04-13T09:40:53.442Z,1.10
2023-04-13T09:43:22.956Z,0.53
2023-04-13T09:45:52.471Z,0.97
2023-04-13T09:48:43.309Z,0.80
2023-04-13T09:51:13.167Z,0.67
2023-04-13T09:53:48.227Z,0.50
2023-04-13T09:56:18.435Z,0.93
2023-04-13T09:58:49.061Z,0.80
2023-04-13T10:01:19.540Z,0.73
2023-04-13T10:03:49.349Z,0.37
2023-04-13T10:06:20.302Z,0.30
2023-04-13T10:08:49.835Z,0.50
2023-04-13T10:11:20.053Z,0.77
2023-04-13T10:14:00.152Z,0.93
2023-04-13T10:16:59.924Z,0.40
2023-04-13T10:19:45.850Z,1.07
2023-04-13T10:22:17.740Z,0.63
2023-04-13T10:24:47.465Z,0.53
2023-04-13T10:27:21.470Z,1.70
2023-04-13T10:29:51.049Z,0.47
2023-04-13T10:32:28.865Z,0.70
2023-04-13T10:34:59.899Z,0.40
2023-04-13T10:37:29.945Z,0.63
2023-04-13T10:40:10.251Z,0.90
2023-04-13T10:45:32.220Z,0.33
2023-04-13T10:48:01.739Z,0.40
2023-04-13T10:50:31.555Z,0.57
2023-04-13T10:53:07.420Z,0.40
2023-04-13T10:55:37.702Z,0.40
2023-04-13T10:58:18.358Z,1.07
2023-04-13T11:00:48.884Z,0.30
2023-04-13T11:03:21.278Z,0.30
2023-04-13T11:05:59.740Z,0.20
2023-04-13T11:08:30.399Z,0.43
2023-04-13T11:10:59.948Z,0.53
2023-04-13T11:13:31.933Z,0.30
2023-04-13T11:16:08.044Z,0.67
2023-04-13T11:18:38.029Z,1.00
2023-04-13T11:21:16.169Z,0.57
2023-04-13T11:23:54.021Z,0.33
2023-04-13T11:26:38.876Z,1.10
2023-04-13T11:29:11.549Z,0.40
2023-04-13T11:31:42.654Z,0.40
2023-04-13T11:34:13.082Z,0.30
2023-04-13T11:36:44.649Z,0.63
2023-04-13T11:39:15.064Z,0.40
2023-04-13T11:41:45.398Z,0.60
2023-04-13T11:44:14.882Z,1.93
2023-04-13T11:46:44.501Z,0.90
2023-04-13T11:49:14.055Z,0.43
2023-04-13T11:51:43.844Z,0.40
2023-04-13T11:54:14.048Z,0.40
2023-04-13T11:56:43.962Z,0.77
2023-04-13T11:59:14.382Z,0.77
2023-04-13T12:02:01.526Z,1.17
2023-04-13T12:04:23.573Z,0.37
2023-04-13T12:06:53.528Z,0.87
2023-04-13T12:09:36.982Z,0.30
2023-04-13T12:12:25.079Z,0.60
2023-04-13T12:17:04.528Z,0.30
2023-04-13T12:19:31.514Z,0.77
2023-04-13T12:22:03.417Z,0.37
2023-04-13T12:24:37.834Z,0.30
2023-04-13T12:29:44.771Z,0.30
2023-04-13T12:32:15.700Z,0.40
2023-04-13T12:34:45.900Z,0.50
2023-04-13T12:37:15.456Z,0.97
2023-04-13T12:39:44.946Z,0.37
2023-04-13T12:42:14.418Z,0.60
2023-04-13T12:44:43.921Z,0.50
2023-04-13T12:47:13.815Z,0.60
2023-04-13T12:49:43.354Z,0.30
2023-04-13T12:52:13.044Z,0.57
2023-04-13T12:54:42.521Z,0.70
2023-04-13T12:57:12.881Z,1.00
2023-04-13T12:59:42.381Z,0.47
2023-04-13T13:02:12.104Z,0.93
2023-04-13T13:04:42.009Z,0.37
2023-04-13T13:07:11.731Z,0.33
2023-04-13T13:09:43.049Z,0.37
2023-04-13T13:12:12.782Z,0.30
2023-04-13T13:14:42.703Z,0.97
2023-04-13T13:17:12.225Z,0.57
2023-04-13T13:19:41.744Z,0.93
2023-04-13T13:22:11.434Z,0.33
2023-04-13T13:24:40.972Z,0.57
2023-04-13T13:29:41.878Z,0.10
2023-04-13T13:32:11.580Z,0.13
2023-04-13T13:34:41.377Z,0.20
2023-04-13T13:37:11.420Z,0.30
2023-04-13T13:39:41.104Z,0.20
2023-04-13T13:42:10.621Z,0.77
2023-04-13T13:44:40.200Z,0.50
2023-04-13T13:47:10.135Z,0.30
2023-04-13T13:49:39.625Z,0.23
2023-04-13T13:52:09.110Z,0.20
2023-04-13T13:54:38.598Z,0.43
2023-04-13T13:57:08.071Z,0.20
2023-04-13T13:59:37.550Z,0.20
2023-04-13T14:02:07.698Z,0.57
2023-04-13T14:04:37.346Z,0.30
2023-04-13T14:07:06.779Z,0.20
2023-04-13T14:09:36.349Z,0.30
2023-04-13T14:12:06.221Z,0.33
2023-04-13T14:14:35.680Z,0.70
2023-04-13T14:17:05.294Z,0.33
2023-04-13T14:19:34.837Z,0.40
2023-04-13T14:22:04.339Z,0.30
2023-04-13T14:24:33.830Z,0.47
2023-04-13T14:27:03.339Z,0.20
2023-04-13T14:29:32.852Z,0.20
2023-04-13T14:32:02.344Z,0.67
2023-04-13T14:34:31.917Z,0.20
2023-04-13T14:37:01.432Z,0.37
2023-04-13T14:39:31.130Z,0.53
2023-04-13T14:42:00.601Z,0.20
2023-04-13T14:44:30.092Z,1.17
2023-04-13T14:47:00.728Z,0.20
2023-04-13T14:49:30.312Z,0.30
2023-04-13T14:51:59.808Z,1.03
2023-04-13T14:54:29.608Z,0.40
2023-04-13T14:56:59.096Z,0.13
2023-04-13T14:59:28.827Z,0.20
2023-04-13T15:01:58.420Z,0.20
2023-04-13T15:04:29.797Z,0.40
2023-04-13T15:07:00.627Z,0.50
2023-04-13T15:09:30.305Z,0.30
2023-04-13T15:11:59.853Z,0.50
2023-04-13T15:14:29.327Z,0.30
2023-04-13T15:16:59.407Z,0.63
2023-04-13T15:19:29.019Z,1.37
2023-04-13T15:21:58.596Z,0.20
2023-04-13T15:24:28.115Z,0.80
2023-04-13T15:26:57.656Z,0.20
2023-04-13T15:29:27.275Z,0.40
2023-04-13T15:31:56.957Z,0.37
2023-04-13T15:34:27.829Z,0.70
2023-04-13T15:36:59.223Z,0.33
2023-04-13T15:39:28.706Z,0.40
2023-04-13T15:41:59.583Z,0.20
2023-04-13T15:44:29.079Z,0.27
2023-04-13T15:46:59.283Z,0.20
2023-04-13T15:49:31.472Z,0.30
2023-04-13T15:52:01.054Z,0.30
2023-04-13T15:54:30.543Z,0.30
2023-04-13T15:57:00.048Z,0.30
2023-04-13T15:59:30.656Z,0.20
2023-04-13T16:02:00.353Z,0.30
2023-04-13T16:04:30.184Z,0.17
2023-04-13T16:09:32.869Z,0.40
2023-04-13T16:12:07.287Z,0.43
2023-04-13T16:14:38.522Z,0.50
2023-04-13T16:17:10.298Z,0.20
2023-04-13T16:19:40.876Z,0.30
2023-04-13T16:22:10.500Z,0.30
2023-04-13T16:24:41.054Z,0.30
2023-04-13T16:27:10.552Z,0.30
2023-04-13T16:29:41.738Z,0.30
2023-04-13T16:32:11.594Z,0.37
2023-04-13T16:34:41.099Z,0.50
2023-04-13T16:37:10.626Z,0.30
2023-04-13T16:39:40.564Z,0.63
2023-04-13T16:42:10.876Z,0.20
2023-04-13T16:44:40.383Z,0.47
2023-04-13T16:47:10.097Z,0.87
2023-04-13T16:49:39.612Z,1.03
2023-04-13T16:52:09.119Z,0.20
2023-04-13T16:54:40.147Z,0.27
2023-04-13T16:57:09.730Z,0.20
2023-04-13T16:59:39.570Z,0.20
2023-04-13T17:02:15.345Z,0.30
2023-04-13T17:04:40.453Z,0.20
2023-04-13T17:07:10.041Z,0.20
2023-04-13T17:09:39.512Z,0.20
2023-04-13T17:12:09.082Z,0.37
2023-04-13T17:14:38.572Z,0.20
2023-04-13T17:17:08.404Z,0.30
2023-04-13T17:19:37.930Z,0.37
2023-04-13T17:22:07.706Z,0.30
2023-04-13T17:24:37.185Z,0.23
2023-04-13T17:27:07.124Z,0.37
2023-04-13T17:29:37.916Z,1.30
2023-04-13T17:32:07.976Z,1.17
2023-04-13T17:34:37.690Z,0.87
2023-04-13T17:37:08.160Z,0.20
2023-04-13T17:39:39.285Z,0.20
2023-04-13T17:42:09.670Z,0.60
2023-04-13T17:44:39.370Z,0.20
2023-04-13T17:47:09.267Z,0.23
2023-04-13T17:49:40.379Z,0.83
2023-04-13T17:52:09.945Z,0.47
2023-04-13T17:54:40.408Z,0.57
2023-04-13T17:57:09.941Z,0.30
2023-04-13T17:59:41.582Z,0.40
2023-04-13T18:02:11.180Z,0.30
2023-04-13T18:04:40.830Z,0.53
2023-04-13T18:07:10.987Z,0.40
2023-04-13T18:09:40.545Z,0.40
2023-04-13T18:12:10.041Z,0.83
2023-04-13T18:14:39.615Z,0.87
2023-04-13T18:17:09.192Z,1.30
2023-04-13T18:19:38.702Z,1.00
2023-04-13T18:22:08.198Z,1.33
2023-04-13T18:24:38.666Z,1.30
2023-04-13T18:27:08.192Z,0.77
2023-04-13T18:29:37.686Z,0.60
2023-04-13T18:32:07.374Z,0.93
2023-04-13T18:34:37.033Z,0.60
2023-04-13T18:37:06.530Z,0.67
2023-04-13T18:39:36.023Z,1.07
2023-04-13T18:42:07.229Z,0.68
2023-04-13T18:44:36.726Z,1.10
2023-04-13T18:47:06.426Z,1.20
2023-04-13T18:49:35.999Z,1.63
2023-04-13T18:52:06.056Z,1.40
2023-04-13T18:54:36.536Z,1.77
2023-04-13T18:57:07.600Z,2.20
2023-04-13T18:59:39.052Z,2.03
2023-04-13T19:02:08.677Z,2.42
2023-04-13T19:04:40.066Z,2.70
2023-04-13T19:07:09.629Z,2.43
2023-04-13T19:09:39.975Z,2.47
2023-04-13T19:12:09.742Z,2.30
2023-04-13T19:14:39.271Z,2.07
2023-04-13T19:17:09.254Z,2.87
2023-04-13T19:19:38.743Z,3.73
2023-04-13T19:22:08.818Z,5.47
2023-04-13T19:24:38.319Z,8.10
2023-04-13T19:27:07.891Z,8.83
2023-04-13T19:29:39.036Z,8.33
2023-04-13T19:32:11.767Z,8.87
2023-04-13T19:34:41.355Z,8.40
2023-04-13T19:37:11.624Z,7.50
2023-04-13T19:39:41.197Z,5.70
2023-04-13T19:42:10.777Z,5.37
2023-04-13T19:44:40.353Z,3.97
2023-04-13T19:47:09.848Z,3.50
2023-04-13T19:49:39.395Z,3.17
2023-04-13T19:52:10.523Z,2.60
2023-04-13T19:54:40.024Z,2.40
2023-04-13T19:57:09.999Z,2.63
2023-04-13T19:59:39.769Z,1.97
2023-04-13T20:02:10.865Z,3.40
2023-04-13T20:04:40.777Z,1.93
2023-04-13T20:07:10.424Z,1.43
2023-04-13T20:09:39.961Z,1.00
2023-04-13T20:12:09.582Z,0.83
2023-04-13T20:14:40.724Z,0.60
2023-04-13T20:17:11.218Z,0.70
2023-04-13T20:19:40.716Z,0.93
2023-04-13T20:22:10.940Z,0.70
2023-04-13T20:24:40.917Z,0.80
2023-04-13T20:27:10.483Z,0.90
2023-04-13T20:29:40.009Z,0.77
2023-04-13T20:32:09.556Z,0.40
2023-04-13T20:34:39.139Z,0.50
2023-04-13T20:37:10.106Z,1.23
2023-04-13T20:39:41.239Z,2.07
2023-04-13T20:42:11.423Z,0.50
2023-04-13T20:44:42.571Z,0.60
2023-04-13T20:47:15.031Z,0.60
2023-04-13T20:49:46.167Z,0.50
2023-04-13T20:52:17.291Z,0.60
2023-04-13T20:54:46.816Z,0.87
2023-04-13T20:57:17.583Z,0.50
2023-04-13T20:59:47.528Z,0.50
2023-04-13T21:02:17.428Z,0.90
2023-04-13T21:04:47.606Z,0.50
2023-04-13T21:07:17.352Z,0.70
2023-04-13T21:09:46.940Z,1.03
2023-04-13T21:12:17.027Z,1.50
2023-04-13T21:14:46.569Z,0.70
2023-04-13T21:17:16.171Z,1.00
2023-04-13T21:19:45.828Z,0.90
2023-04-13T21:22:15.971Z,0.70
2023-04-13T21:24:46.616Z,1.73
2023-04-13T21:27:18.036Z,1.33
2023-04-13T21:29:48.015Z,1.40
2023-04-13T21:32:17.602Z,1.73
2023-04-13T21:34:47.279Z,2.10
2023-04-13T21:37:16.760Z,1.90
2023-04-13T21:39:46.335Z,1.30
2023-04-13T21:42:16.896Z,1.57
2023-04-13T21:44:46.400Z,1.20
2023-04-13T21:47:16.198Z,1.50
2023-04-13T21:49:45.742Z,1.60
2023-04-13T21:52:15.609Z,1.80
2023-04-13T21:54:45.199Z,2.37
2023-04-13T21:57:14.711Z,1.70
2023-04-13T21:59:44.216Z,1.70
2023-04-13T22:02:13.784Z,2.00
2023-04-13T22:04:43.396Z,1.50
2023-04-13T22:07:12.891Z,1.50
2023-04-13T22:09:42.414Z,1.73
2023-04-13T22:12:11.918Z,1.97
2023-04-13T22:14:41.428Z,2.03
2023-04-13T22:17:10.931Z,1.70
2023-04-13T22:19:40.554Z,1.40
2023-04-13T22:22:10.798Z,1.77
2023-04-13T22:24:40.314Z,1.80
2023-04-13T22:27:09.804Z,1.40
2023-04-13T22:29:39.314Z,1.63
2023-04-13T22:32:08.841Z,1.83
2023-04-13T22:34:38.313Z,2.10
2023-04-13T22:37:07.941Z,2.20
2023-04-13T22:39:37.558Z,2.10
2023-04-13T22:42:07.221Z,2.00
2023-04-13T22:44:37.150Z,1.90
2023-04-13T22:47:06.643Z,1.77
2023-04-13T22:49:36.416Z,1.73
2023-04-13T22:52:06.056Z,1.80
2023-04-13T22:54:35.550Z,1.73
2023-04-13T22:57:05.622Z,1.80
2023-04-13T22:59:35.739Z,1.80
2023-04-13T23:02:05.674Z,1.70
2023-04-13T23:04:35.538Z,1.73
2023-04-13T23:07:05.168Z,1.30
2023-04-13T23:09:34.672Z,1.43
2023-04-13T23:12:04.161Z,1.50
2023-04-13T23:14:33.657Z,1.50
2023-04-13T23:17:03.218Z,1.77
2023-04-13T23:19:32.748Z,1.60
2023-04-13T23:22:02.251Z,1.40
2023-04-13T23:24:31.737Z,1.23
2023-04-13T23:27:01.220Z,1.10
2023-04-13T23:29:30.765Z,1.57
2023-04-13T23:32:00.429Z,1.70
2023-04-13T23:34:29.959Z,1.57
2023-04-13T23:36:59.498Z,2.47
2023-04-13T23:39:29.020Z,0.70
2023-04-13T23:41:58.613Z,1.30
2023-04-13T23:44:28.430Z,1.10
2023-04-13T23:46:58.200Z,2.63
2023-04-13T23:49:27.744Z,0.63
2023-04-13T23:51:58.016Z,1.57
2023-04-13T23:54:27.576Z,1.17
2023-04-13T23:56:57.543Z,1.10
2023-04-13T23:59:27.069Z,1.17
